createdAt,value
2017-12-29T00:01:47.668Z,7.20
2017-12-29T00:04:14.844Z,8.35
2017-12-29T00:06:44.519Z,6.87
2017-12-29T00:09:11.651Z,7.82
2017-12-29T00:11:40.787Z,7.65
2017-12-29T00:14:08.404Z,7.65
2017-12-29T00:16:35.798Z,8.63
2017-12-29T00:19:04.750Z,7.68
2017-12-29T00:21:34.423Z,7.12
2017-12-29T00:24:03.431Z,7.65
2017-12-29T00:26:30.439Z,7.10
2017-12-29T00:29:00.143Z,7.30
2017-12-29T00:31:27.274Z,6.55
2017-12-29T00:33:54.026Z,5.70
2017-12-29T00:36:21.583Z,6.10
2017-12-29T00:38:48.524Z,6.00
2017-12-29T00:41:17.661Z,6.20
2017-12-29T00:43:44.788Z,5.70
2017-12-29T00:46:12.284Z,6.10
2017-12-29T00:48:39.381Z,6.05
2017-12-29T00:51:06.545Z,5.93
2017-12-29T00:53:34.285Z,7.37
2017-12-29T00:56:01.351Z,6.03
2017-12-29T00:58:29.541Z,6.53
2017-12-29T01:00:56.899Z,6.05
2017-12-29T01:03:25.359Z,5.55
2017-12-29T01:05:53.063Z,5.40
2017-12-29T01:08:21.297Z,6.75
2017-12-29T01:10:48.555Z,6.32
2017-12-29T01:13:15.612Z,6.53
2017-12-29T01:15:42.677Z,5.72
2017-12-29T01:18:09.711Z,5.90
2017-12-29T01:20:40.766Z,7.12
2017-12-29T01:23:08.195Z,5.55
2017-12-29T01:25:35.964Z,6.50
2017-12-29T01:28:02.912Z,6.70
2017-12-29T01:30:30.996Z,6.40
2017-12-29T01:32:57.714Z,5.95
2017-12-29T01:35:25.598Z,6.12
2017-12-29T01:37:53.701Z,5.75
2017-12-29T01:40:20.782Z,5.53
2017-12-29T01:42:48.461Z,6.30
2017-12-29T01:45:15.839Z,5.18
2017-12-29T01:47:49.764Z,6.25
2017-12-29T01:50:17.424Z,5.70
2017-12-29T01:52:44.375Z,4.87
2017-12-29T01:55:12.363Z,5.35
2017-12-29T01:57:39.289Z,5.80
2017-12-29T02:00:10.110Z,5.57
2017-12-29T02:02:37.148Z,5.82
2017-12-29T02:05:04.966Z,6.10
2017-12-29T02:07:32.455Z,6.30
2017-12-29T02:10:01.092Z,5.87
2017-12-29T02:12:28.081Z,5.40
2017-12-29T02:14:55.143Z,6.12
2017-12-29T02:17:24.594Z,5.87
2017-12-29T02:19:52.015Z,5.70
2017-12-29T02:22:21.027Z,5.90
2017-12-29T02:24:49.390Z,5.72
2017-12-29T02:27:23.215Z,5.80
2017-12-29T02:29:53.601Z,5.32
2017-12-29T02:32:20.307Z,5.12
2017-12-29T02:34:50.210Z,5.53
2017-12-29T02:37:16.891Z,5.00
2017-12-29T02:39:45.060Z,5.00
2017-12-29T02:42:16.079Z,5.57
2017-12-29T02:44:43.164Z,5.97
2017-12-29T02:47:13.028Z,5.40
2017-12-29T02:49:41.128Z,4.28
2017-12-29T02:54:42.410Z,5.50
2017-12-29T02:57:11.773Z,5.00
2017-12-29T03:02:22.102Z,5.25
2017-12-29T03:04:57.087Z,5.70
2017-12-29T03:07:37.260Z,6.07
2017-12-29T03:12:48.499Z,5.70
2017-12-29T03:15:15.388Z,5.43
2017-12-29T03:17:42.986Z,5.40
2017-12-29T03:20:12.538Z,6.40
2017-12-29T03:22:41.040Z,5.47
2017-12-29T03:25:08.131Z,5.50
2017-12-29T03:27:35.514Z,5.60
2017-12-29T03:30:03.718Z,6.20
2017-12-29T03:32:31.374Z,5.20
2017-12-29T03:35:00.064Z,6.55
2017-12-29T03:37:28.847Z,5.07
2017-12-29T03:39:55.894Z,5.28
2017-12-29T03:42:28.830Z,5.22
2017-12-29T03:44:55.528Z,5.87
2017-12-29T03:47:23.348Z,4.82
2017-12-29T03:49:50.811Z,5.82
2017-12-29T03:52:17.886Z,5.18
2017-12-29T03:54:45.108Z,6.28
2017-12-29T03:57:12.575Z,4.95
2017-12-29T03:59:39.623Z,4.37
2017-12-29T04:02:06.660Z,5.78
2017-12-29T04:04:33.730Z,6.78
2017-12-29T04:07:00.970Z,6.43
2017-12-29T04:09:27.898Z,5.45
2017-12-29T04:11:54.899Z,5.78
2017-12-29T04:14:21.926Z,5.87
2017-12-29T04:16:48.868Z,5.55
2017-12-29T04:19:15.799Z,5.90
2017-12-29T04:21:43.310Z,5.07
2017-12-29T04:24:10.449Z,6.05
2017-12-29T04:26:37.935Z,4.97
2017-12-29T04:29:04.839Z,4.70
2017-12-29T04:31:31.620Z,4.70
2017-12-29T04:33:59.694Z,5.80
2017-12-29T04:36:28.627Z,5.55
2017-12-29T04:38:56.069Z,5.82
2017-12-29T04:41:24.031Z,5.65
2017-12-29T04:43:53.004Z,5.72
2017-12-29T04:46:19.991Z,4.70
2017-12-29T04:48:46.989Z,5.75
2017-12-29T04:51:14.432Z,5.25
2017-12-29T04:53:41.710Z,5.93
2017-12-29T04:56:08.407Z,5.40
2017-12-29T04:58:36.124Z,5.20
2017-12-29T05:01:03.907Z,4.45
2017-12-29T05:03:30.883Z,4.85
2017-12-29T05:05:57.926Z,4.65
2017-12-29T05:08:25.592Z,3.83
2017-12-29T05:10:54.892Z,5.07
2017-12-29T05:13:22.573Z,4.87
2017-12-29T05:15:49.262Z,4.12
2017-12-29T05:18:16.330Z,4.50
2017-12-29T05:20:44.601Z,4.07
2017-12-29T05:23:12.070Z,4.22
2017-12-29T05:25:39.105Z,4.55
2017-12-29T05:28:06.129Z,4.47
2017-12-29T05:30:34.015Z,4.37
2017-12-29T05:33:02.393Z,4.40
2017-12-29T05:35:30.101Z,4.50
2017-12-29T05:37:57.314Z,4.93
2017-12-29T05:40:24.387Z,4.90
2017-12-29T05:42:51.434Z,4.55
2017-12-29T05:45:18.143Z,4.53
2017-12-29T05:47:45.220Z,4.30
2017-12-29T05:50:12.183Z,4.45
2017-12-29T05:52:39.195Z,4.75
2017-12-29T05:55:06.262Z,4.00
2017-12-29T05:57:34.653Z,3.90
2017-12-29T06:00:01.674Z,4.60
2017-12-29T06:02:28.803Z,4.55
2017-12-29T06:04:55.832Z,3.85
2017-12-29T06:09:56.848Z,4.60
2017-12-29T06:12:26.438Z,4.60
2017-12-29T06:14:53.484Z,3.62
2017-12-29T06:22:30.711Z,4.57
2017-12-29T06:25:01.425Z,3.40
2017-12-29T06:30:03.354Z,3.37
2017-12-29T06:32:32.042Z,4.65
2017-12-29T06:35:00.662Z,4.82
2017-12-29T06:37:27.703Z,5.85
2017-12-29T06:39:56.148Z,4.43
2017-12-29T06:42:23.255Z,4.12
2017-12-29T06:44:50.238Z,4.50
2017-12-29T06:47:17.464Z,4.37
2017-12-29T06:49:44.431Z,4.70
2017-12-29T06:52:11.514Z,4.12
2017-12-29T06:54:38.442Z,4.85
2017-12-29T06:57:05.698Z,4.37
2017-12-29T06:59:34.169Z,4.03
2017-12-29T07:02:02.143Z,4.43
2017-12-29T07:04:29.538Z,4.32
2017-12-29T07:06:56.454Z,4.90
2017-12-29T07:09:23.243Z,4.50
2017-12-29T07:11:50.210Z,5.10
2017-12-29T07:14:17.822Z,4.53
2017-12-29T07:16:45.362Z,4.80
2017-12-29T07:19:12.289Z,5.00
2017-12-29T07:21:39.395Z,4.12
2017-12-29T07:24:06.992Z,3.80
2017-12-29T07:26:34.021Z,4.72
2017-12-29T07:29:01.035Z,4.70
2017-12-29T07:31:27.944Z,5.62
2017-12-29T07:33:55.023Z,5.15
2017-12-29T07:36:22.060Z,4.80
2017-12-29T07:38:49.048Z,5.05
2017-12-29T07:41:15.819Z,5.10
2017-12-29T07:43:42.791Z,4.40
2017-12-29T07:46:09.484Z,5.12
2017-12-29T07:48:37.461Z,5.10
2017-12-29T07:51:04.387Z,5.57
2017-12-29T07:53:31.963Z,5.70
2017-12-29T07:55:59.128Z,6.68
2017-12-29T07:58:26.203Z,7.85
2017-12-29T08:00:53.715Z,8.77
2017-12-29T08:03:20.885Z,11.12
2017-12-29T08:05:48.012Z,10.05
2017-12-29T08:08:14.714Z,8.75
2017-12-29T08:10:42.411Z,9.27
2017-12-29T08:13:09.474Z,9.38
2017-12-29T08:15:36.718Z,7.95
2017-12-29T08:18:03.707Z,8.52
2017-12-29T08:20:31.181Z,7.85
2017-12-29T08:22:58.271Z,7.80
2017-12-29T08:25:25.365Z,5.68
2017-12-29T08:27:52.427Z,4.18
2017-12-29T08:30:19.442Z,5.57
2017-12-29T08:32:46.958Z,4.45
2017-12-29T08:35:14.115Z,3.75
2017-12-29T08:37:41.033Z,3.85
2017-12-29T08:40:07.968Z,3.05
2017-12-29T08:42:34.885Z,3.60
2017-12-29T08:45:01.985Z,3.50
2017-12-29T08:47:28.906Z,3.03
2017-12-29T08:49:55.839Z,3.62
2017-12-29T08:52:22.752Z,3.53
2017-12-29T08:54:49.731Z,3.35
2017-12-29T08:57:16.770Z,3.15
2017-12-29T08:59:43.751Z,2.72
2017-12-29T09:02:10.913Z,3.15
2017-12-29T09:04:38.938Z,2.87
2017-12-29T09:07:06.442Z,3.10
2017-12-29T09:09:33.398Z,2.97
2017-12-29T09:12:00.341Z,2.90
2017-12-29T09:14:30.469Z,2.70
2017-12-29T09:16:57.156Z,2.75
2017-12-29T09:19:24.079Z,2.97
2017-12-29T09:21:50.790Z,2.60
2017-12-29T09:24:17.802Z,2.58
2017-12-29T09:26:44.730Z,2.83
2017-12-29T09:29:11.647Z,2.72
2017-12-29T09:31:38.367Z,2.28
2017-12-29T09:34:05.286Z,2.40
2017-12-29T09:36:31.998Z,2.75
2017-12-29T09:38:58.963Z,2.15
2017-12-29T09:41:25.662Z,2.45
2017-12-29T09:43:52.594Z,2.60
2017-12-29T09:46:19.303Z,2.30
2017-12-29T09:48:45.988Z,2.20
2017-12-29T09:51:12.915Z,2.10
2017-12-29T09:53:40.209Z,1.90
2017-12-29T09:56:06.918Z,2.30
2017-12-29T09:58:33.987Z,2.37
2017-12-29T10:01:00.698Z,2.08
2017-12-29T10:03:27.379Z,1.90
2017-12-29T10:05:54.079Z,2.40
2017-12-29T10:08:21.154Z,3.05
2017-12-29T10:10:47.872Z,2.50
2017-12-29T10:13:18.702Z,1.95
2017-12-29T10:15:45.412Z,2.08
2017-12-29T10:18:12.106Z,2.50
2017-12-29T10:20:38.814Z,2.10
2017-12-29T10:23:05.887Z,2.58
2017-12-29T10:25:32.603Z,2.42
2017-12-29T10:27:59.527Z,1.90
2017-12-29T10:30:26.224Z,2.58
2017-12-29T10:32:52.919Z,2.12
2017-12-29T10:35:19.994Z,2.30
2017-12-29T10:37:46.931Z,2.42
2017-12-29T10:40:13.622Z,2.10
2017-12-29T10:42:40.354Z,1.85
2017-12-29T10:45:08.175Z,2.35
2017-12-29T10:47:35.101Z,2.72
2017-12-29T10:50:02.132Z,2.20
2017-12-29T10:52:29.066Z,2.35
2017-12-29T10:54:55.775Z,2.08
2017-12-29T10:57:22.482Z,2.03
2017-12-29T10:59:49.751Z,2.42
2017-12-29T11:02:16.907Z,2.70
2017-12-29T11:04:43.912Z,2.20
2017-12-29T11:07:11.570Z,2.65
2017-12-29T11:09:38.605Z,2.62
2017-12-29T11:12:05.315Z,2.03
2017-12-29T11:14:31.995Z,2.45
2017-12-29T11:16:59.042Z,2.20
2017-12-29T11:19:25.746Z,3.00
2017-12-29T11:21:52.967Z,2.47
2017-12-29T11:24:19.664Z,2.60
2017-12-29T11:26:47.090Z,2.75
2017-12-29T11:29:14.205Z,2.50
2017-12-29T11:31:41.146Z,2.08
2017-12-29T11:34:08.524Z,2.30
2017-12-29T11:36:35.230Z,2.53
2017-12-29T11:39:01.914Z,2.08
2017-12-29T11:41:29.315Z,2.37
2017-12-29T11:43:56.012Z,2.40
2017-12-29T11:46:22.975Z,2.50
2017-12-29T11:48:49.659Z,2.53
2017-12-29T11:51:16.799Z,2.47
2017-12-29T11:53:43.734Z,2.37
2017-12-29T11:56:10.687Z,2.60
2017-12-29T11:58:37.839Z,3.42
2017-12-29T12:01:05.265Z,2.80
2017-12-29T12:03:32.701Z,2.20
2017-12-29T12:05:59.382Z,2.45
2017-12-29T12:08:26.552Z,2.92
2017-12-29T12:10:54.063Z,2.50
2017-12-29T12:13:20.746Z,3.25
2017-12-29T12:15:47.774Z,3.05
2017-12-29T12:18:14.835Z,2.70
2017-12-29T12:20:41.526Z,2.60
2017-12-29T12:23:08.355Z,3.80
2017-12-29T12:25:35.255Z,2.30
2017-12-29T12:28:02.026Z,2.45
2017-12-29T12:30:28.934Z,2.95
2017-12-29T12:32:55.963Z,2.90
2017-12-29T12:35:22.642Z,2.65
2017-12-29T12:37:49.570Z,3.00
2017-12-29T12:40:16.703Z,2.45
2017-12-29T12:42:43.402Z,3.00
2017-12-29T12:45:10.087Z,2.35
2017-12-29T12:47:37.165Z,2.70
2017-12-29T12:50:04.075Z,2.72
2017-12-29T12:52:30.788Z,2.60
2017-12-29T12:54:59.390Z,2.40
2017-12-29T12:57:26.438Z,2.22
2017-12-29T12:59:53.710Z,1.95
2017-12-29T13:02:20.414Z,2.20
2017-12-29T13:04:47.804Z,2.70
2017-12-29T13:07:14.502Z,2.42
2017-12-29T13:09:41.554Z,2.47
2017-12-29T13:12:08.596Z,2.08
2017-12-29T13:14:35.580Z,2.55
2017-12-29T13:17:02.263Z,2.20
2017-12-29T13:19:29.318Z,2.60
2017-12-29T13:21:56.012Z,2.12
2017-12-29T13:24:23.134Z,2.37
2017-12-29T13:26:50.190Z,2.40
2017-12-29T13:29:17.105Z,1.80
2017-12-29T13:31:44.266Z,2.15
2017-12-29T13:34:11.234Z,1.90
2017-12-29T13:36:37.914Z,1.90
2017-12-29T13:39:04.999Z,2.00
2017-12-29T13:41:32.475Z,2.15
2017-12-29T13:43:59.427Z,1.80
2017-12-29T13:46:26.464Z,1.75
2017-12-29T13:48:53.734Z,2.15
2017-12-29T13:51:21.119Z,1.55
2017-12-29T13:53:48.068Z,1.50
2017-12-29T13:56:15.265Z,1.67
2017-12-29T13:58:42.262Z,1.80
2017-12-29T14:01:09.188Z,1.75
2017-12-29T14:03:36.198Z,2.25
2017-12-29T14:06:03.234Z,1.30
2017-12-29T14:08:30.383Z,1.65
2017-12-29T14:10:57.283Z,1.30
2017-12-29T14:13:25.728Z,1.87
2017-12-29T14:15:53.295Z,2.00
2017-12-29T14:18:22.075Z,1.40
2017-12-29T14:20:53.969Z,1.48
2017-12-29T14:23:21.364Z,1.30
2017-12-29T14:25:56.731Z,1.30
2017-12-29T14:28:24.691Z,1.50
2017-12-29T14:30:52.808Z,1.33
2017-12-29T14:33:20.414Z,1.42
2017-12-29T14:35:55.097Z,2.00
2017-12-29T14:38:36.721Z,1.80
2017-12-29T14:41:11.081Z,1.95
2017-12-29T14:43:38.295Z,1.80
2017-12-29T14:46:21.885Z,1.52
2017-12-29T14:48:50.698Z,1.60
2017-12-29T14:51:17.651Z,1.50
2017-12-29T14:53:45.604Z,1.23
2017-12-29T14:56:12.754Z,1.35
2017-12-29T14:58:40.402Z,1.87
2017-12-29T15:03:43.255Z,1.80
2017-12-29T15:06:13.815Z,2.47
2017-12-29T15:08:41.079Z,2.40
2017-12-29T15:13:40.475Z,1.50
2017-12-29T15:16:07.179Z,2.00
2017-12-29T15:18:34.318Z,1.90
2017-12-29T15:21:01.898Z,1.45
2017-12-29T15:23:30.224Z,1.83
2017-12-29T15:25:57.516Z,1.65
2017-12-29T15:28:24.464Z,1.62
2017-12-29T15:37:24.450Z,1.90
2017-12-29T15:39:52.022Z,1.60
2017-12-29T15:42:19.450Z,1.90
2017-12-29T15:44:46.500Z,1.85
2017-12-29T15:47:13.867Z,2.40
2017-12-29T15:49:40.817Z,2.37
2017-12-29T15:52:07.822Z,2.28
2017-12-29T15:54:34.844Z,1.87
2017-12-29T15:57:01.880Z,1.95
2017-12-29T16:02:01.724Z,2.08
2017-12-29T16:04:34.866Z,1.65
2017-12-29T16:07:02.242Z,1.77
2017-12-29T16:09:29.003Z,2.33
2017-12-29T16:11:55.977Z,1.75
2017-12-29T16:14:23.085Z,1.35
2017-12-29T16:16:49.789Z,1.67
2017-12-29T16:19:16.505Z,2.05
2017-12-29T16:21:43.221Z,2.12
2017-12-29T16:24:09.930Z,1.70
2017-12-29T16:26:37.035Z,1.80
2017-12-29T16:29:03.740Z,2.05
2017-12-29T16:31:30.444Z,1.58
2017-12-29T16:33:57.158Z,1.52
2017-12-29T16:36:24.118Z,2.00
2017-12-29T16:38:50.817Z,1.62
2017-12-29T16:41:17.537Z,1.60
2017-12-29T16:43:44.501Z,1.62
2017-12-29T16:46:11.245Z,1.67
2017-12-29T16:48:37.953Z,1.55
2017-12-29T16:51:04.681Z,1.83
2017-12-29T16:53:31.460Z,1.75
2017-12-29T16:55:58.175Z,1.60
2017-12-29T16:58:25.337Z,1.45
2017-12-29T17:00:52.066Z,1.90
2017-12-29T17:03:18.827Z,1.60
2017-12-29T17:05:45.557Z,1.67
2017-12-29T17:08:12.261Z,1.95
2017-12-29T17:10:39.012Z,2.10
2017-12-29T17:13:05.739Z,1.73
2017-12-29T17:15:32.486Z,1.50
2017-12-29T17:17:59.238Z,1.70
2017-12-29T17:20:26.008Z,1.45
2017-12-29T17:22:52.703Z,1.52
2017-12-29T17:25:20.250Z,1.30
2017-12-29T17:27:46.978Z,1.40
2017-12-29T17:30:14.044Z,1.40
2017-12-29T17:32:40.821Z,1.50
2017-12-29T17:35:07.521Z,1.35
2017-12-29T17:37:34.242Z,1.30
2017-12-29T17:40:00.959Z,1.60
2017-12-29T17:42:28.406Z,1.30
2017-12-29T17:44:59.238Z,1.62
2017-12-29T17:49:59.302Z,1.58
2017-12-29T17:52:27.010Z,1.30
2017-12-29T17:54:56.157Z,1.25
2017-12-29T17:57:24.742Z,1.40
2017-12-29T17:59:53.394Z,1.20
2017-12-29T18:05:05.951Z,1.00
2017-12-29T18:07:33.067Z,1.25
2017-12-29T18:15:03.563Z,1.50
2017-12-29T18:17:30.411Z,1.15
2017-12-29T18:23:15.898Z,1.00
2017-12-29T18:25:43.012Z,1.40
2017-12-29T18:28:11.046Z,1.20
2017-12-29T18:30:37.777Z,1.12
2017-12-29T18:33:04.498Z,1.17
2017-12-29T18:35:32.004Z,1.50
2017-12-29T18:38:01.465Z,0.90
2017-12-29T18:40:29.322Z,1.30
2017-12-29T18:42:56.510Z,0.98
2017-12-29T18:45:23.929Z,1.20
2017-12-29T18:47:51.932Z,1.25
2017-12-29T18:55:36.331Z,1.10
2017-12-29T18:58:05.235Z,0.90
2017-12-29T19:00:32.014Z,0.90
2017-12-29T19:02:59.100Z,1.08
2017-12-29T19:05:26.265Z,1.10
2017-12-29T19:07:52.998Z,0.88
2017-12-29T19:10:20.718Z,1.05
2017-12-29T19:12:48.524Z,0.95
2017-12-29T19:15:16.208Z,1.10
2017-12-29T19:17:45.721Z,1.30
2017-12-29T19:20:12.459Z,1.25
2017-12-29T19:22:39.599Z,1.05
2017-12-29T19:25:06.387Z,1.55
2017-12-29T19:51:04.550Z,1.37
2017-12-29T20:07:37.390Z,1.50
2017-12-29T20:15:13.842Z,1.70
2017-12-29T20:30:33.866Z,2.92
2017-12-29T20:38:51.256Z,1.40
2017-12-29T20:47:48.010Z,1.40
2017-12-29T20:50:16.051Z,1.73
2017-12-29T21:16:57.882Z,1.52
2017-12-29T21:21:55.653Z,1.40
2017-12-29T21:24:22.422Z,1.15
2017-12-29T21:26:49.323Z,1.48
2017-12-29T21:29:16.457Z,1.60
2017-12-29T21:31:43.205Z,1.20
2017-12-29T21:34:10.857Z,1.58
2017-12-29T21:36:37.617Z,1.20
2017-12-29T21:39:07.026Z,1.50
2017-12-29T22:02:17.026Z,2.03
2017-12-29T22:35:45.789Z,4.43
2017-12-29T22:38:15.521Z,5.05
2017-12-29T22:43:15.615Z,5.32
2017-12-29T22:48:20.777Z,5.30
2017-12-29T22:50:53.961Z,6.00
2017-12-29T22:56:11.383Z,7.05
2017-12-29T22:58:39.771Z,7.95
2017-12-29T23:01:18.226Z,7.10
2017-12-29T23:03:46.513Z,7.57
2017-12-29T23:06:13.632Z,7.20
2017-12-29T23:11:17.510Z,7.25
2017-12-29T23:18:49.427Z,7.60
2017-12-29T23:23:48.094Z,7.75
2017-12-29T23:26:15.825Z,7.62
2017-12-29T23:33:45.046Z,8.90
2017-12-29T23:36:12.043Z,7.82
2017-12-29T23:38:39.720Z,8.90
2017-12-29T23:43:39.262Z,8.63
2017-12-29T23:46:06.874Z,8.40
2017-12-29T23:48:34.028Z,8.65
2017-12-29T23:51:01.151Z,8.60
2017-12-29T23:53:27.910Z,9.35
2017-12-29T23:55:56.531Z,9.18
2017-12-29T23:58:23.885Z,9.52
